sensor_id;sensor_type;location;lat;lon;timestamp;P1;durP1;ratioP1;P2;durP2;ratioP2
32964;SDS011;19317;48.226;11.686;2023-05-07T00:03:11;4.43;;;4.03;;
32964;SDS011;19317;48.226;11.686;2023-05-07T00:08:01;4.33;;;3.93;;
32964;SDS011;19317;48.226;11.686;2023-05-07T00:12:52;4.43;;;4.03;;
32964;SDS011;19317;48.226;11.686;2023-05-07T00:17:42;4.50;;;4.10;;
32964;SDS011;19317;48.226;11.686;2023-05-07T00:22:33;4.50;;;4.20;;
32964;SDS011;19317;48.226;11.686;2023-05-07T00:27:24;4.70;;;3.90;;
32964;SDS011;19317;48.226;11.686;2023-05-07T00:32:14;3.93;;;3.60;;
32964;SDS011;19317;48.226;11.686;2023-05-07T00:37:05;4.60;;;4.20;;
32964;SDS011;19317;48.226;11.686;2023-05-07T00:41:55;4.80;;;4.40;;
32964;SDS011;19317;48.226;11.686;2023-05-07T00:46:46;5.03;;;4.60;;
32964;SDS011;19317;48.226;11.686;2023-05-07T00:51:36;4.83;;;4.43;;
32964;SDS011;19317;48.226;11.686;2023-05-07T00:56:27;5.13;;;4.73;;
32964;SDS011;19317;48.226;11.686;2023-05-07T01:01:18;5.27;;;4.80;;
32964;SDS011;19317;48.226;11.686;2023-05-07T01:06:08;5.13;;;4.63;;
32964;SDS011;19317;48.226;11.686;2023-05-07T01:11:02;5.50;;;5.00;;
32964;SDS011;19317;48.226;11.686;2023-05-07T01:15:52;5.00;;;4.60;;
32964;SDS011;19317;48.226;11.686;2023-05-07T01:20:43;5.70;;;4.93;;
32964;SDS011;19317;48.226;11.686;2023-05-07T01:25:34;5.40;;;4.90;;
32964;SDS011;19317;48.226;11.686;2023-05-07T01:30:24;4.87;;;4.47;;
32964;SDS011;19317;48.226;11.686;2023-05-07T01:35:19;5.47;;;4.97;;
32964;SDS011;19317;48.226;11.686;2023-05-07T01:40:20;5.77;;;5.27;;
32964;SDS011;19317;48.226;11.686;2023-05-07T01:45:11;6.30;;;5.50;;
32964;SDS011;19317;48.226;11.686;2023-05-07T01:50:01;5.90;;;5.30;;
32964;SDS011;19317;48.226;11.686;2023-05-07T01:54:52;6.03;;;5.43;;
32964;SDS011;19317;48.226;11.686;2023-05-07T01:59:42;5.90;;;5.40;;
32964;SDS011;19317;48.226;11.686;2023-05-07T02:04:33;6.10;;;5.60;;
32964;SDS011;19317;48.226;11.686;2023-05-07T02:09:23;5.80;;;5.30;;
32964;SDS011;19317;48.226;11.686;2023-05-07T02:14:14;6.13;;;5.53;;
32964;SDS011;19317;48.226;11.686;2023-05-07T02:19:05;8.03;;;5.20;;
32964;SDS011;19317;48.226;11.686;2023-05-07T02:23:55;5.37;;;4.97;;
32964;SDS011;19317;48.226;11.686;2023-05-07T02:28:45;5.30;;;4.90;;
32964;SDS011;19317;48.226;11.686;2023-05-07T02:33:36;6.30;;;5.70;;
32964;SDS011;19317;48.226;11.686;2023-05-07T02:38:26;5.53;;;5.03;;
32964;SDS011;19317;48.226;11.686;2023-05-07T02:43:17;5.20;;;4.70;;
32964;SDS011;19317;48.226;11.686;2023-05-07T02:48:07;6.00;;;4.80;;
32964;SDS011;19317;48.226;11.686;2023-05-07T02:52:58;5.47;;;4.97;;
32964;SDS011;19317;48.226;11.686;2023-05-07T02:57:48;5.30;;;4.80;;
32964;SDS011;19317;48.226;11.686;2023-05-07T03:02:39;5.30;;;4.90;;
32964;SDS011;19317;48.226;11.686;2023-05-07T03:07:29;4.87;;;4.47;;
32964;SDS011;19317;48.226;11.686;2023-05-07T03:12:20;5.20;;;4.80;;
32964;SDS011;19317;48.226;11.686;2023-05-07T03:17:10;5.43;;;4.93;;
32964;SDS011;19317;48.226;11.686;2023-05-07T03:22:00;4.90;;;4.50;;
32964;SDS011;19317;48.226;11.686;2023-05-07T03:26:51;5.17;;;4.57;;
32964;SDS011;19317;48.226;11.686;2023-05-07T03:31:41;4.87;;;4.37;;
32964;SDS011;19317;48.226;11.686;2023-05-07T03:36:32;4.70;;;4.30;;
32964;SDS011;19317;48.226;11.686;2023-05-07T03:41:22;4.77;;;4.37;;
32964;SDS011;19317;48.226;11.686;2023-05-07T03:46:13;4.57;;;4.17;;
32964;SDS011;19317;48.226;11.686;2023-05-07T03:51:03;4.83;;;4.43;;
32964;SDS011;19317;48.226;11.686;2023-05-07T03:55:54;5.27;;;4.77;;
32964;SDS011;19317;48.226;11.686;2023-05-07T04:00:44;6.00;;;4.40;;
32964;SDS011;19317;48.226;11.686;2023-05-07T04:05:35;4.50;;;4.10;;
32964;SDS011;19317;48.226;11.686;2023-05-07T04:10:25;4.30;;;3.90;;
32964;SDS011;19317;48.226;11.686;2023-05-07T04:15:16;4.53;;;4.13;;
32964;SDS011;19317;48.226;11.686;2023-05-07T04:20:10;4.50;;;4.10;;
32964;SDS011;19317;48.226;11.686;2023-05-07T04:25:04;4.07;;;3.77;;
32964;SDS011;19317;48.226;11.686;2023-05-07T04:29:55;4.60;;;4.20;;
32964;SDS011;19317;48.226;11.686;2023-05-07T04:34:46;4.40;;;4.00;;
32964;SDS011;19317;48.226;11.686;2023-05-07T04:39:36;4.40;;;4.00;;
32964;SDS011;19317;48.226;11.686;2023-05-07T04:44:27;4.57;;;4.17;;
32964;SDS011;19317;48.226;11.686;2023-05-07T04:49:17;4.27;;;3.97;;
32964;SDS011;19317;48.226;11.686;2023-05-07T04:54:08;5.43;;;4.97;;
32964;SDS011;19317;48.226;11.686;2023-05-07T04:58:58;5.80;;;5.30;;
32964;SDS011;19317;48.226;11.686;2023-05-07T05:03:48;5.90;;;5.40;;
32964;SDS011;19317;48.226;11.686;2023-05-07T05:08:39;6.20;;;5.60;;
32964;SDS011;19317;48.226;11.686;2023-05-07T05:13:29;5.87;;;5.40;;
32964;SDS011;19317;48.226;11.686;2023-05-07T05:18:20;5.50;;;4.93;;
32964;SDS011;19317;48.226;11.686;2023-05-07T05:23:10;5.40;;;5.00;;
32964;SDS011;19317;48.226;11.686;2023-05-07T05:28:01;5.27;;;4.87;;
32964;SDS011;19317;48.226;11.686;2023-05-07T05:32:51;4.87;;;4.50;;
32964;SDS011;19317;48.226;11.686;2023-05-07T05:37:43;5.00;;;4.60;;
32964;SDS011;19317;48.226;11.686;2023-05-07T05:42:33;4.90;;;4.40;;
32964;SDS011;19317;48.226;11.686;2023-05-07T05:47:23;4.43;;;4.13;;
32964;SDS011;19317;48.226;11.686;2023-05-07T05:52:14;5.10;;;4.50;;
32964;SDS011;19317;48.226;11.686;2023-05-07T05:57:04;4.40;;;4.10;;
32964;SDS011;19317;48.226;11.686;2023-05-07T06:01:55;5.30;;;4.80;;
32964;SDS011;19317;48.226;11.686;2023-05-07T06:06:45;5.90;;;5.40;;
32964;SDS011;19317;48.226;11.686;2023-05-07T06:11:36;5.77;;;5.27;;
32964;SDS011;19317;48.226;11.686;2023-05-07T06:16:26;6.27;;;5.70;;
32964;SDS011;19317;48.226;11.686;2023-05-07T06:21:17;6.53;;;5.93;;
32964;SDS011;19317;48.226;11.686;2023-05-07T06:26:07;7.30;;;5.80;;
32964;SDS011;19317;48.226;11.686;2023-05-07T06:31:10;7.37;;;6.40;;
32964;SDS011;19317;48.226;11.686;2023-05-07T06:36:04;7.63;;;5.70;;
32964;SDS011;19317;48.226;11.686;2023-05-07T06:40:55;6.40;;;5.43;;
32964;SDS011;19317;48.226;11.686;2023-05-07T06:45:46;5.50;;;5.00;;
32964;SDS011;19317;48.226;11.686;2023-05-07T06:50:36;5.77;;;5.27;;
32964;SDS011;19317;48.226;11.686;2023-05-07T06:55:26;5.70;;;5.10;;
32964;SDS011;19317;48.226;11.686;2023-05-07T07:00:17;5.90;;;5.40;;
32964;SDS011;19317;48.226;11.686;2023-05-07T07:05:08;6.07;;;5.47;;
32964;SDS011;19317;48.226;11.686;2023-05-07T07:09:58;5.60;;;5.00;;
32964;SDS011;19317;48.226;11.686;2023-05-07T07:14:49;5.70;;;5.20;;
32964;SDS011;19317;48.226;11.686;2023-05-07T07:19:39;6.60;;;5.50;;
32964;SDS011;19317;48.226;11.686;2023-05-07T07:24:30;6.47;;;5.00;;
32964;SDS011;19317;48.226;11.686;2023-05-07T07:29:20;8.97;;;5.27;;
32964;SDS011;19317;48.226;11.686;2023-05-07T07:34:11;5.13;;;4.73;;
32964;SDS011;19317;48.226;11.686;2023-05-07T07:39:01;5.00;;;4.60;;
32964;SDS011;19317;48.226;11.686;2023-05-07T07:43:52;4.90;;;4.47;;
32964;SDS011;19317;48.226;11.686;2023-05-07T07:48:42;5.00;;;4.60;;
32964;SDS011;19317;48.226;11.686;2023-05-07T07:53:33;4.70;;;4.30;;
32964;SDS011;19317;48.226;11.686;2023-05-07T07:58:23;4.97;;;4.47;;
32964;SDS011;19317;48.226;11.686;2023-05-07T08:03:13;6.83;;;5.00;;
32964;SDS011;19317;48.226;11.686;2023-05-07T08:08:04;5.23;;;4.70;;
32964;SDS011;19317;48.226;11.686;2023-05-07T08:12:55;5.47;;;5.07;;
32964;SDS011;19317;48.226;11.686;2023-05-07T08:17:45;4.90;;;4.43;;
32964;SDS011;19317;48.226;11.686;2023-05-07T08:22:36;5.43;;;4.93;;
32964;SDS011;19317;48.226;11.686;2023-05-07T08:27:27;4.83;;;4.43;;
32964;SDS011;19317;48.226;11.686;2023-05-07T08:32:17;5.43;;;4.60;;
32964;SDS011;19317;48.226;11.686;2023-05-07T08:37:08;4.43;;;4.13;;
32964;SDS011;19317;48.226;11.686;2023-05-07T08:41:59;5.23;;;4.60;;
32964;SDS011;19317;48.226;11.686;2023-05-07T08:46:51;4.77;;;4.37;;
32964;SDS011;19317;48.226;11.686;2023-05-07T08:51:43;5.97;;;4.63;;
32964;SDS011;19317;48.226;11.686;2023-05-07T08:56:33;4.90;;;4.50;;
32964;SDS011;19317;48.226;11.686;2023-05-07T09:01:24;5.30;;;4.57;;
32964;SDS011;19317;48.226;11.686;2023-05-07T09:06:15;4.87;;;4.47;;
32964;SDS011;19317;48.226;11.686;2023-05-07T09:11:05;5.00;;;4.50;;
32964;SDS011;19317;48.226;11.686;2023-05-07T09:15:56;5.43;;;4.93;;
32964;SDS011;19317;48.226;11.686;2023-05-07T09:20:46;5.77;;;5.27;;
32964;SDS011;19317;48.226;11.686;2023-05-07T09:25:37;5.20;;;4.80;;
32964;SDS011;19317;48.226;11.686;2023-05-07T09:30:31;5.07;;;4.67;;
32964;SDS011;19317;48.226;11.686;2023-05-07T09:35:22;4.17;;;3.87;;
32964;SDS011;19317;48.226;11.686;2023-05-07T09:40:25;4.70;;;4.30;;
32964;SDS011;19317;48.226;11.686;2023-05-07T09:45:27;4.30;;;4.00;;
32964;SDS011;19317;48.226;11.686;2023-05-07T09:50:18;4.43;;;4.03;;
32964;SDS011;19317;48.226;11.686;2023-05-07T09:55:11;4.93;;;4.57;;
32964;SDS011;19317;48.226;11.686;2023-05-07T10:00:02;4.97;;;4.47;;
32964;SDS011;19317;48.226;11.686;2023-05-07T10:04:53;4.23;;;3.83;;
32964;SDS011;19317;48.226;11.686;2023-05-07T10:09:44;4.73;;;3.50;;
32964;SDS011;19317;48.226;11.686;2023-05-07T10:14:35;4.87;;;3.40;;
32964;SDS011;19317;48.226;11.686;2023-05-07T10:19:26;3.40;;;3.20;;
32964;SDS011;19317;48.226;11.686;2023-05-07T10:24:19;4.10;;;3.33;;
32964;SDS011;19317;48.226;11.686;2023-05-07T10:29:18;4.67;;;3.80;;
32964;SDS011;19317;48.226;11.686;2023-05-07T10:34:47;3.80;;;3.50;;
32964;SDS011;19317;48.226;11.686;2023-05-07T10:39:40;4.00;;;3.57;;
32964;SDS011;19317;48.226;11.686;2023-05-07T10:44:31;4.27;;;3.87;;
32964;SDS011;19317;48.226;11.686;2023-05-07T10:49:21;3.90;;;3.60;;
32964;SDS011;19317;48.226;11.686;2023-05-07T11:04:12;4.20;;;3.23;;
32964;SDS011;19317;48.226;11.686;2023-05-07T11:09:04;3.67;;;3.37;;
32964;SDS011;19317;48.226;11.686;2023-05-07T11:13:54;3.50;;;3.20;;
32964;SDS011;19317;48.226;11.686;2023-05-07T11:18:51;3.17;;;2.97;;
32964;SDS011;19317;48.226;11.686;2023-05-07T11:28:37;3.20;;;2.77;;
32964;SDS011;19317;48.226;11.686;2023-05-07T11:33:32;2.57;;;2.37;;
32964;SDS011;19317;48.226;11.686;2023-05-07T11:38:22;3.20;;;2.57;;
32964;SDS011;19317;48.226;11.686;2023-05-07T11:43:14;2.70;;;2.50;;
32964;SDS011;19317;48.226;11.686;2023-05-07T11:48:05;3.23;;;2.60;;
32964;SDS011;19317;48.226;11.686;2023-05-07T11:52:55;2.73;;;2.50;;
32964;SDS011;19317;48.226;11.686;2023-05-07T11:57:46;2.87;;;2.67;;
32964;SDS011;19317;48.226;11.686;2023-05-07T12:02:36;2.30;;;2.10;;
32964;SDS011;19317;48.226;11.686;2023-05-07T12:07:27;2.37;;;2.20;;
32964;SDS011;19317;48.226;11.686;2023-05-07T12:12:17;2.60;;;2.10;;
32964;SDS011;19317;48.226;11.686;2023-05-07T12:17:08;2.30;;;2.10;;
32964;SDS011;19317;48.226;11.686;2023-05-07T12:21:59;2.00;;;1.90;;
32964;SDS011;19317;48.226;11.686;2023-05-07T12:26:52;2.13;;;1.93;;
32964;SDS011;19317;48.226;11.686;2023-05-07T12:31:43;2.20;;;2.00;;
32964;SDS011;19317;48.226;11.686;2023-05-07T12:36:37;3.23;;;2.30;;
32964;SDS011;19317;48.226;11.686;2023-05-07T12:41:28;2.60;;;2.40;;
32964;SDS011;19317;48.226;11.686;2023-05-07T12:46:19;3.37;;;2.40;;
32964;SDS011;19317;48.226;11.686;2023-05-07T12:51:09;2.60;;;2.40;;
32964;SDS011;19317;48.226;11.686;2023-05-07T12:55:59;3.17;;;2.97;;
32964;SDS011;19317;48.226;11.686;2023-05-07T13:00:50;2.93;;;2.73;;
32964;SDS011;19317;48.226;11.686;2023-05-07T13:05:41;2.93;;;2.63;;
32964;SDS011;19317;48.226;11.686;2023-05-07T13:10:31;3.17;;;2.53;;
32964;SDS011;19317;48.226;11.686;2023-05-07T13:15:22;2.60;;;2.40;;
32964;SDS011;19317;48.226;11.686;2023-05-07T13:20:12;3.40;;;3.10;;
32964;SDS011;19317;48.226;11.686;2023-05-07T13:25:03;2.87;;;2.67;;
32964;SDS011;19317;48.226;11.686;2023-05-07T13:29:54;4.13;;;3.20;;
32964;SDS011;19317;48.226;11.686;2023-05-07T13:34:44;3.23;;;2.93;;
32964;SDS011;19317;48.226;11.686;2023-05-07T13:39:34;3.33;;;3.03;;
32964;SDS011;19317;48.226;11.686;2023-05-07T13:44:25;2.70;;;2.50;;
32964;SDS011;19317;48.226;11.686;2023-05-07T13:49:16;3.20;;;2.83;;
32964;SDS011;19317;48.226;11.686;2023-05-07T13:54:06;3.17;;;2.70;;
32964;SDS011;19317;48.226;11.686;2023-05-07T13:58:57;3.30;;;2.67;;
32964;SDS011;19317;48.226;11.686;2023-05-07T14:03:50;3.03;;;2.83;;
32964;SDS011;19317;48.226;11.686;2023-05-07T14:08:41;3.30;;;3.10;;
32964;SDS011;19317;48.226;11.686;2023-05-07T14:13:31;2.77;;;2.50;;
32964;SDS011;19317;48.226;11.686;2023-05-07T14:18:22;2.60;;;2.40;;
32964;SDS011;19317;48.226;11.686;2023-05-07T14:23:12;2.63;;;2.43;;
32964;SDS011;19317;48.226;11.686;2023-05-07T14:28:03;3.07;;;2.70;;
32964;SDS011;19317;48.226;11.686;2023-05-07T14:32:53;2.70;;;2.50;;
32964;SDS011;19317;48.226;11.686;2023-05-07T14:37:43;2.90;;;2.53;;
32964;SDS011;19317;48.226;11.686;2023-05-07T14:42:34;2.40;;;2.20;;
32964;SDS011;19317;48.226;11.686;2023-05-07T14:47:24;2.67;;;2.47;;
32964;SDS011;19317;48.226;11.686;2023-05-07T14:52:15;2.77;;;2.57;;
32964;SDS011;19317;48.226;11.686;2023-05-07T14:57:06;2.60;;;2.40;;
32964;SDS011;19317;48.226;11.686;2023-05-07T15:01:58;2.40;;;2.20;;
32964;SDS011;19317;48.226;11.686;2023-05-07T15:06:48;2.77;;;2.33;;
32964;SDS011;19317;48.226;11.686;2023-05-07T15:11:39;2.40;;;2.20;;
32964;SDS011;19317;48.226;11.686;2023-05-07T15:16:29;2.30;;;2.17;;
32964;SDS011;19317;48.226;11.686;2023-05-07T15:21:19;2.80;;;2.50;;
32964;SDS011;19317;48.226;11.686;2023-05-07T15:26:10;2.60;;;2.23;;
32964;SDS011;19317;48.226;11.686;2023-05-07T15:31:00;2.50;;;2.30;;
32964;SDS011;19317;48.226;11.686;2023-05-07T15:35:51;2.27;;;2.07;;
32964;SDS011;19317;48.226;11.686;2023-05-07T15:40:41;3.00;;;2.17;;
32964;SDS011;19317;48.226;11.686;2023-05-07T15:45:32;2.00;;;1.90;;
32964;SDS011;19317;48.226;11.686;2023-05-07T15:50:22;2.20;;;2.00;;
32964;SDS011;19317;48.226;11.686;2023-05-07T15:55:13;2.63;;;2.43;;
32964;SDS011;19317;48.226;11.686;2023-05-07T16:00:03;2.37;;;2.17;;
32964;SDS011;19317;48.226;11.686;2023-05-07T16:04:54;2.40;;;2.17;;
32964;SDS011;19317;48.226;11.686;2023-05-07T16:09:45;2.20;;;2.10;;
32964;SDS011;19317;48.226;11.686;2023-05-07T16:14:35;2.53;;;2.10;;
32964;SDS011;19317;48.226;11.686;2023-05-07T16:19:26;2.50;;;2.30;;
32964;SDS011;19317;48.226;11.686;2023-05-07T16:24:16;2.40;;;2.20;;
32964;SDS011;19317;48.226;11.686;2023-05-07T16:29:07;2.50;;;2.30;;
32964;SDS011;19317;48.226;11.686;2023-05-07T16:33:58;2.20;;;2.03;;
32964;SDS011;19317;48.226;11.686;2023-05-07T16:38:48;2.30;;;2.10;;
32964;SDS011;19317;48.226;11.686;2023-05-07T16:43:39;2.93;;;2.63;;
32964;SDS011;19317;48.226;11.686;2023-05-07T16:48:29;2.97;;;2.30;;
32964;SDS011;19317;48.226;11.686;2023-05-07T16:53:20;2.57;;;2.37;;
32964;SDS011;19317;48.226;11.686;2023-05-07T16:58:10;2.33;;;2.13;;
32964;SDS011;19317;48.226;11.686;2023-05-07T17:03:01;2.40;;;2.20;;
32964;SDS011;19317;48.226;11.686;2023-05-07T17:07:52;2.90;;;2.23;;
32964;SDS011;19317;48.226;11.686;2023-05-07T17:12:44;2.40;;;2.23;;
32964;SDS011;19317;48.226;11.686;2023-05-07T17:17:35;2.50;;;2.30;;
32964;SDS011;19317;48.226;11.686;2023-05-07T17:22:25;2.60;;;2.40;;
32964;SDS011;19317;48.226;11.686;2023-05-07T17:27:16;2.67;;;2.47;;
32964;SDS011;19317;48.226;11.686;2023-05-07T17:32:06;2.60;;;2.37;;
32964;SDS011;19317;48.226;11.686;2023-05-07T17:36:57;2.67;;;2.47;;
32964;SDS011;19317;48.226;11.686;2023-05-07T17:41:47;2.63;;;2.40;;
32964;SDS011;19317;48.226;11.686;2023-05-07T17:46:38;2.10;;;2.00;;
32964;SDS011;19317;48.226;11.686;2023-05-07T17:51:28;2.10;;;2.00;;
32964;SDS011;19317;48.226;11.686;2023-05-07T17:56:19;3.27;;;3.00;;
32964;SDS011;19317;48.226;11.686;2023-05-07T18:01:09;3.00;;;2.80;;
32964;SDS011;19317;48.226;11.686;2023-05-07T18:06:00;2.30;;;2.13;;
32964;SDS011;19317;48.226;11.686;2023-05-07T18:10:50;3.80;;;2.13;;
32964;SDS011;19317;48.226;11.686;2023-05-07T18:15:41;2.60;;;2.40;;
32964;SDS011;19317;48.226;11.686;2023-05-07T18:20:33;2.67;;;2.47;;
32964;SDS011;19317;48.226;11.686;2023-05-07T18:25:24;2.87;;;2.67;;
32964;SDS011;19317;48.226;11.686;2023-05-07T18:30:14;2.30;;;2.20;;
32964;SDS011;19317;48.226;11.686;2023-05-07T18:35:05;2.73;;;2.40;;
32964;SDS011;19317;48.226;11.686;2023-05-07T18:39:56;2.87;;;2.40;;
32964;SDS011;19317;48.226;11.686;2023-05-07T18:44:46;2.80;;;2.60;;
32964;SDS011;19317;48.226;11.686;2023-05-07T18:49:37;2.70;;;2.50;;
32964;SDS011;19317;48.226;11.686;2023-05-07T18:54:27;3.20;;;2.90;;
32964;SDS011;19317;48.226;11.686;2023-05-07T18:59:18;3.40;;;3.20;;
32964;SDS011;19317;48.226;11.686;2023-05-07T19:04:08;3.67;;;3.37;;
32964;SDS011;19317;48.226;11.686;2023-05-07T19:08:59;5.00;;;3.33;;
32964;SDS011;19317;48.226;11.686;2023-05-07T19:13:50;4.10;;;3.70;;
32964;SDS011;19317;48.226;11.686;2023-05-07T19:18:40;3.93;;;3.63;;
32964;SDS011;19317;48.226;11.686;2023-05-07T19:23:31;4.10;;;3.70;;
32964;SDS011;19317;48.226;11.686;2023-05-07T19:28:22;4.20;;;3.70;;
32964;SDS011;19317;48.226;11.686;2023-05-07T19:33:12;4.20;;;3.80;;
32964;SDS011;19317;48.226;11.686;2023-05-07T19:38:03;3.80;;;3.50;;
32964;SDS011;19317;48.226;11.686;2023-05-07T19:42:53;3.93;;;3.63;;
32964;SDS011;19317;48.226;11.686;2023-05-07T19:47:46;3.80;;;3.50;;
32964;SDS011;19317;48.226;11.686;2023-05-07T19:52:36;3.97;;;3.67;;
32964;SDS011;19317;48.226;11.686;2023-05-07T19:57:27;4.17;;;3.77;;
32964;SDS011;19317;48.226;11.686;2023-05-07T20:02:17;4.00;;;3.53;;
32964;SDS011;19317;48.226;11.686;2023-05-07T20:07:08;3.70;;;3.40;;
32964;SDS011;19317;48.226;11.686;2023-05-07T20:11:58;3.93;;;3.53;;
32964;SDS011;19317;48.226;11.686;2023-05-07T20:16:49;4.03;;;3.63;;
32964;SDS011;19317;48.226;11.686;2023-05-07T20:21:39;4.37;;;3.97;;
32964;SDS011;19317;48.226;11.686;2023-05-07T20:26:30;5.73;;;4.27;;
32964;SDS011;19317;48.226;11.686;2023-05-07T20:31:20;4.43;;;4.03;;
32964;SDS011;19317;48.226;11.686;2023-05-07T20:36:10;5.73;;;4.60;;
32964;SDS011;19317;48.226;11.686;2023-05-07T20:41:08;4.83;;;4.43;;
32964;SDS011;19317;48.226;11.686;2023-05-07T20:46:00;4.53;;;4.13;;
32964;SDS011;19317;48.226;11.686;2023-05-07T20:50:50;4.90;;;3.90;;
32964;SDS011;19317;48.226;11.686;2023-05-07T20:55:41;5.17;;;4.20;;
32964;SDS011;19317;48.226;11.686;2023-05-07T21:00:31;4.20;;;3.90;;
32964;SDS011;19317;48.226;11.686;2023-05-07T21:05:22;4.67;;;4.27;;
32964;SDS011;19317;48.226;11.686;2023-05-07T21:10:12;5.00;;;4.03;;
32964;SDS011;19317;48.226;11.686;2023-05-07T21:15:02;4.47;;;4.07;;
32964;SDS011;19317;48.226;11.686;2023-05-07T21:19:53;4.00;;;3.70;;
32964;SDS011;19317;48.226;11.686;2023-05-07T21:24:44;4.80;;;4.40;;
32964;SDS011;19317;48.226;11.686;2023-05-07T21:29:34;4.60;;;4.20;;
32964;SDS011;19317;48.226;11.686;2023-05-07T21:34:24;4.63;;;4.23;;
32964;SDS011;19317;48.226;11.686;2023-05-07T21:39:15;5.20;;;4.30;;
32964;SDS011;19317;48.226;11.686;2023-05-07T21:44:06;22.03;;;7.10;;
32964;SDS011;19317;48.226;11.686;2023-05-07T21:48:56;15.97;;;8.07;;
32964;SDS011;19317;48.226;11.686;2023-05-07T21:53:46;7.27;;;5.90;;
32964;SDS011;19317;48.226;11.686;2023-05-07T21:58:37;6.57;;;5.70;;
32964;SDS011;19317;48.226;11.686;2023-05-07T22:03:27;7.23;;;5.97;;
32964;SDS011;19317;48.226;11.686;2023-05-07T22:08:18;9.87;;;5.70;;
32964;SDS011;19317;48.226;11.686;2023-05-07T22:13:08;8.20;;;6.33;;
32964;SDS011;19317;48.226;11.686;2023-05-07T22:17:59;9.93;;;6.27;;
32964;SDS011;19317;48.226;11.686;2023-05-07T22:22:50;7.00;;;6.30;;
32964;SDS011;19317;48.226;11.686;2023-05-07T22:27:42;9.07;;;6.20;;
32964;SDS011;19317;48.226;11.686;2023-05-07T22:32:33;10.77;;;6.40;;
32964;SDS011;19317;48.226;11.686;2023-05-07T22:37:24;7.03;;;6.10;;
32964;SDS011;19317;48.226;11.686;2023-05-07T22:42:14;6.90;;;6.20;;
32964;SDS011;19317;48.226;11.686;2023-05-07T22:47:05;7.53;;;6.80;;
32964;SDS011;19317;48.226;11.686;2023-05-07T22:51:55;7.03;;;6.33;;
32964;SDS011;19317;48.226;11.686;2023-05-07T22:56:46;7.90;;;6.70;;
32964;SDS011;19317;48.226;11.686;2023-05-07T23:01:36;7.47;;;6.77;;
32964;SDS011;19317;48.226;11.686;2023-05-07T23:06:27;7.80;;;7.00;;
32964;SDS011;19317;48.226;11.686;2023-05-07T23:11:17;8.33;;;7.23;;
32964;SDS011;19317;48.226;11.686;2023-05-07T23:16:08;8.07;;;7.33;;
32964;SDS011;19317;48.226;11.686;2023-05-07T23:20:58;8.33;;;7.50;;
32964;SDS011;19317;48.226;11.686;2023-05-07T23:25:52;8.83;;;6.93;;
32964;SDS011;19317;48.226;11.686;2023-05-07T23:30:42;7.70;;;6.80;;
32964;SDS011;19317;48.226;11.686;2023-05-07T23:35:32;9.33;;;7.33;;
32964;SDS011;19317;48.226;11.686;2023-05-07T23:40:23;8.20;;;7.40;;
32964;SDS011;19317;48.226;11.686;2023-05-07T23:45:13;7.87;;;7.07;;
32964;SDS011;19317;48.226;11.686;2023-05-07T23:50:04;9.33;;;7.50;;
32964;SDS011;19317;48.226;11.686;2023-05-07T23:54:55;8.07;;;6.97;;
32964;SDS011;19317;48.226;11.686;2023-05-07T23:59:45;8.30;;;6.93;;
